Bursledon, United Kingdom
Current Conditions -  °F | °C
As of 9:50 AM on Friday 19 Dec 2014 (Local Time) from EGHI Reporting Station
Scattered Clouds Scattered Clouds  
Wind Chill: 42°   Ceiling: Unl
Heat Index: 48°   Visibility: 6mi
Dew Point: 37°   Wind: 16mph
Humidity: 66%   Direction: 300°WNW
Pressure: 29.97"   Gusts: 28mph
Location:  50.89°N, 1.32°W
Report Text: EGHI 190950Z 30014G24KT 260V340 9999 FEW030 SCT046 09/03 Q1015
Loading
Personal Weather Stations






























Interactive Weather Map New forecast layout! Learn more

10-Day Weather Forecast

Advertisements
Track Severe Weather on mobile